Flight Number: EUR3006 Duration: 11:00
Departure: Frankfurt Airport (EDDF) at 08:00 Distance: 5335 Nm
Arrival: Vancouver Airport (CYVR) at 19:00 Equipment: B747

Weather Information
Frankfurt / M-Flughafen, Germany (EDDF) 50-03N 008-36E 113M Oct 19, 2018 - 01:50 PM EDT / 2018.10.19 1750 UTC
Wind: from the NNE (020 degrees) at 7 MPH (6 KT):0
Visibility: greater than 7 mile(s):0 Temperature: 59 F (15 C) Dew Point: 50 F (10 C) Relative Humidity: 72% Pressure (altimeter): 30.21 in. Hg (1023 hPa)
ob: EDDF 191750Z 02006KT CAVOK 15/10 Q1023 NOSIG cycle: 18
Sunrise: 05:58 Sunset: 16:22 (UTC)

Vancouver International Air-Port, B. C., Canada (CYVR) 49-11N 123-10W 2M Oct 19, 2018 - 01:00 PM EDT / 2018.10.19 1700 UTC
Wind: from the E (090 degrees) at 3 MPH (3 KT):0
Visibility: 20 mile(s):0
Sky conditions: overcast Temperature: 51 F (11 C) Dew Point: 48 F (9 C) Relative Humidity: 87% Pressure (altimeter): 30.29 in. Hg (1025 hPa)
ob: CYVR 191700Z 09003KT 20SM OVC250 11/09 A3029 RMK CS8 CONTRAILS HZ VIS N 30SM SLP257 cycle: 17
Sunrise: 14:44 Sunset: 01:10 (UTC)

TAF:2018/10/19 18:40 TAF CYVR 191738Z 1918/2024 VRB03KT P6SM SCT250 BECMG 1918/1920 26005KT FM200900 VRB03KT P6SM FEW250 PROB30 2009/2017 1/2SM FG BKN002 BECMG 2018/2020 28008KT RMK NXT FCST BY 192100Z

Previous Pireps for this route
Date Aircraft Flight time Fuel used Landing rate On time
2013-06-03A330-20011.03141838-338Charter
2013-07-08B77711.00179441-261Charter
2016-12-29B74711.032045590Yes
(pireps marked green are flown by you)

Route map